Time;durP1;ratioP1;P1;durP2;ratioP2;P2;SDS_P1;SDS_P2;PMS_P1;PMS_P2;Temp;Humidity;BMP_temperature;BMP_pressure;BME280_temperature;BME280_humidity;BME280_pressure;Samples;Min_cycle;Max_cycle;Signal;HPM_P1;HPM_P2
2022/05/04 00:00:14;;;;;;;2.17;1.98;;;;;;;4.94;78.93;96492.88;4993523;28;20019;-67
2022/05/04 00:02:41;;;;;;;4.68;1.95;;;;;;;4.96;78.97;96496.28;4993447;28;20030;-64
2022/05/04 00:05:07;;;;;;;2.28;2.08;;;;;;;5.02;79.49;96498.78;4993366;28;20026;-63
2022/05/04 00:07:33;;;;;;;1.90;1.80;;;;;;;5.07;79.51;96493.50;4993248;28;20556;-67
2022/05/04 00:09:59;;;;;;;5.00;2.20;;;;;;;5.14;79.85;96494.25;4995425;28;20101;-65
2022/05/04 00:12:25;;;;;;;2.35;1.90;;;;;;;5.20;80.30;96498.50;4997338;28;20025;-66
2022/05/04 00:14:52;;;;;;;2.30;2.10;;;;;;;5.20;80.19;96483.78;4997245;28;20023;-62
2022/05/04 00:17:18;;;;;;;3.00;1.77;;;;;;;5.24;80.16;96482.00;4997138;28;20037;-66
2022/05/04 00:19:43;;;;;;;2.83;1.90;;;;;;;5.25;80.38;96481.09;4997178;28;20022;-65
2022/05/04 00:22:09;;;;;;;2.60;2.40;;;;;;;5.30;80.42;96477.53;4997030;28;20473;-66
2022/05/04 00:24:35;;;;;;;5.20;2.30;;;;;;;5.30;80.79;96471.50;4997047;28;20034;-64
2022/05/04 00:27:01;;;;;;;5.50;2.13;;;;;;;5.34;80.26;96478.34;4996857;28;20049;-66
2022/05/04 00:29:26;;;;;;;4.93;2.40;;;;;;;5.33;80.09;96478.38;4996960;28;20050;-65
2022/05/04 00:31:52;;;;;;;3.47;2.65;;;;;;;5.17;80.44;96486.41;4996882;28;20057;-65
2022/05/04 00:34:17;;;;;;;3.20;2.90;;;;;;;5.20;81.69;96488.97;4996907;28;20033;-65
2022/05/04 00:36:43;;;;;;;3.42;3.03;;;;;;;5.13;82.57;96485.63;4996794;28;20019;-67
2022/05/04 00:39:09;;;;;;;3.60;3.30;;;;;;;5.19;83.77;96482.06;4996747;28;20034;-67
2022/05/04 00:41:34;;;;;;;4.68;3.17;;;;;;;5.24;83.90;96489.78;4996762;28;20026;-66
2022/05/04 00:44:00;;;;;;;6.20;3.00;;;;;;;5.29;83.65;96488.81;4996565;28;20112;-67
2022/05/04 00:46:26;;;;;;;3.33;3.03;;;;;;;5.32;83.32;96498.25;4996699;28;20487;-62
2022/05/04 00:48:51;;;;;;;3.13;2.63;;;;;;;5.39;83.23;96491.25;4996470;28;20373;-67
2022/05/04 00:51:17;;;;;;;2.80;2.58;;;;;;;5.43;83.01;96493.75;4996539;28;20109;-64
2022/05/04 00:53:44;;;;;;;3.15;2.85;;;;;;;5.50;82.86;96491.03;4996450;28;20041;-65
2022/05/04 00:56:10;;;;;;;3.00;2.70;;;;;;;5.55;82.48;96487.47;4996370;28;20027;-67
2022/05/04 00:58:55;;;;;;;2.60;2.40;;;;;;;5.56;81.83;96489.19;4996501;28;20105;-67
2022/05/04 01:01:30;;;;;;;4.68;2.35;;;;;;;5.55;81.58;96482.28;4996353;28;20022;-65
2022/05/04 01:03:59;;;;;;;3.30;2.25;;;;;;;5.60;81.18;96494.31;4996250;28;20019;-63
2022/05/04 01:06:26;;;;;;;5.40;2.25;;;;;;;5.61;80.99;96491.69;4996214;28;20085;-66
2022/05/04 01:08:53;;;;;;;2.45;2.25;;;;;;;5.54;80.58;96490.94;4996101;28;20038;-66
2022/05/04 01:11:19;;;;;;;5.22;2.30;;;;;;;5.48;80.35;96487.63;4996159;28;20149;-64
2022/05/04 01:14:07;;;;;;;2.35;2.15;;;;;;;5.44;80.06;96492.00;4996206;28;20018;-66
2022/05/04 01:16:33;;;;;;;2.63;2.42;;;;;;;5.44;79.76;96495.47;4996177;28;20037;-67
2022/05/04 01:19:00;;;;;;;2.17;2.08;;;;;;;5.42;79.59;96492.03;4995979;28;20117;-67
2022/05/04 01:21:26;;;;;;;2.72;2.42;;;;;;;5.29;79.39;96501.78;4995280;28;20030;-63
2022/05/04 01:23:53;;;;;;;2.78;2.53;;;;;;;5.24;79.35;96498.38;4995983;28;20484;-62
2022/05/04 01:26:19;;;;;;;3.58;2.92;;;;;;;5.16;80.08;96505.47;4995859;28;20029;-64
2022/05/04 01:28:46;;;;;;;4.95;3.05;;;;;;;5.15;80.11;96494.22;4995756;28;20030;-66
2022/05/04 01:31:12;;;;;;;3.40;2.67;;;;;;;5.14;79.19;96486.47;4995920;28;20038;-63
2022/05/04 01:33:39;;;;;;;4.00;3.10;;;;;;;5.13;79.48;96480.44;4995851;28;20026;-66
2022/05/04 01:36:06;;;;;;;4.95;2.78;;;;;;;5.05;79.87;96488.34;4995822;28;20054;-66
2022/05/04 01:38:32;;;;;;;8.55;2.95;;;;;;;5.01;80.02;96488.41;4995610;28;20049;-65
2022/05/04 01:40:58;;;;;;;3.30;3.00;;;;;;;4.95;80.01;96489.38;4995629;28;20473;-63
2022/05/04 01:43:23;;;;;;;4.25;3.33;;;;;;;4.88;79.90;96492.97;4995339;28;20050;-66
2022/05/04 01:45:49;;;;;;;3.75;3.28;;;;;;;4.81;80.51;96494.78;4995508;28;20026;-66
2022/05/04 01:48:14;;;;;;;3.53;2.97;;;;;;;4.86;80.34;96494.72;4995318;28;20032;-64
2022/05/04 01:50:40;;;;;;;5.22;2.83;;;;;;;4.89;80.36;96492.06;4995516;28;20064;-67
2022/05/04 01:53:06;;;;;;;3.40;2.83;;;;;;;4.87;80.71;96489.50;4995355;28;20029;-66
2022/05/04 01:55:35;;;;;;;5.63;2.83;;;;;;;4.80;81.10;96493.06;4995343;28;20455;-67
2022/05/04 01:58:04;;;;;;;4.10;2.92;;;;;;;4.81;81.45;96494.78;4995268;28;20030;-62
2022/05/04 02:00:31;;;;;;;3.00;2.70;;;;;;;4.85;81.78;96495.59;4995209;28;20547;-64
2022/05/04 02:02:58;;;;;;;3.40;3.10;;;;;;;4.90;82.14;96497.22;4995177;28;20026;-67
2022/05/04 02:05:24;;;;;;;3.17;2.88;;;;;;;4.91;81.99;96487.72;4995196;28;20064;-68
2022/05/04 02:07:50;;;;;;;7.78;3.15;;;;;;;4.87;82.84;96491.22;4994920;28;20033;-67
2022/05/04 02:10:16;;;;;;;3.92;2.75;;;;;;;4.87;83.58;96492.09;4995080;28;20026;-66
2022/05/04 02:12:43;;;;;;;3.08;2.88;;;;;;;4.97;84.18;96497.13;4994933;28;20026;-66
2022/05/04 02:15:10;;;;;;;3.10;2.78;;;;;;;5.02;83.63;96503.94;4995037;28;20030;-65
2022/05/04 02:17:37;;;;;;;3.28;2.60;;;;;;;5.10;83.22;96505.56;4995043;28;20046;-67
2022/05/04 02:20:03;;;;;;;3.35;2.80;;;;;;;5.14;83.10;96510.69;4994810;28;20092;-66
2022/05/04 02:22:28;;;;;;;3.67;2.40;;;;;;;5.22;82.44;96509.69;4994726;28;20030;-67
2022/05/04 02:24:54;;;;;;;2.80;2.60;;;;;;;5.22;82.15;96514.88;4994835;28;20022;-65
2022/05/04 02:27:19;;;;;;;2.90;2.70;;;;;;;5.24;82.42;96518.31;4994787;28;20031;-63
2022/05/04 02:29:45;;;;;;;2.30;2.10;;;;;;;5.26;81.96;96519.13;4994796;28;20116;-66
2022/05/04 02:32:11;;;;;;;2.35;2.15;;;;;;;5.26;81.99;96516.53;4994360;28;20030;-64
2022/05/04 02:40:11;;;;;;;2.90;2.70;;;;;;;5.34;81.17;96521.59;4994945;28;20411;-63
2022/05/04 02:42:37;;;;;;;2.33;2.13;;;;;;;5.28;80.89;96522.56;4994412;28;20531;-65
2022/05/04 02:45:06;;;;;;;2.42;2.22;;;;;;;5.24;80.74;96524.34;4994219;28;20073;-65
2022/05/04 02:47:31;;;;;;;2.55;2.10;;;;;;;5.22;80.76;96523.53;4994250;28;20465;-66
2022/05/04 02:49:57;;;;;;;3.05;2.75;;;;;;;5.22;80.51;96530.44;4994289;28;20022;-65
2022/05/04 02:52:23;;;;;;;6.45;2.75;;;;;;;5.18;80.36;96527.06;4994335;28;20113;-67
2022/05/04 02:54:48;;;;;;;8.90;2.55;;;;;;;5.17;80.33;96531.38;4994292;28;20054;-65
2022/05/04 02:57:14;;;;;;;7.45;2.33;;;;;;;5.15;80.24;96532.28;4994272;28;20030;-64
2022/05/04 02:59:39;;;;;;;3.55;2.20;;;;;;;5.06;80.33;96533.28;4994223;28;20029;-64
2022/05/04 03:04:49;;;;;;;3.35;2.00;;;;;;;5.02;80.18;96539.38;4994135;28;20393;-65
2022/05/04 03:07:14;;;;;;;2.30;2.10;;;;;;;5.00;80.15;96533.38;4994040;28;20030;-64
2022/05/04 03:09:40;;;;;;;5.60;2.08;;;;;;;5.01;80.25;96535.09;4993973;28;20540;-65
2022/05/04 03:12:06;;;;;;;2.20;1.95;;;;;;;4.95;80.29;96538.63;4994026;28;20065;-64
2022/05/04 03:14:32;;;;;;;2.47;2.28;;;;;;;4.91;80.59;96537.81;4993827;28;20041;-64
2022/05/04 03:16:58;;;;;;;3.35;2.42;;;;;;;4.89;80.51;96537.00;4993915;28;20046;-65
2022/05/04 03:19:24;;;;;;;6.28;2.63;;;;;;;4.92;80.68;96542.16;4993901;28;20026;-67
2022/05/04 03:21:51;;;;;;;3.83;3.00;;;;;;;4.92;81.28;96542.16;4993824;28;20018;-66
2022/05/04 03:24:17;;;;;;;2.72;2.53;;;;;;;4.97;82.30;96546.41;4993768;28;20049;-65
2022/05/04 03:26:43;;;;;;;2.60;2.40;;;;;;;4.99;82.00;96532.53;4993750;28;20054;-64
2022/05/04 03:29:09;;;;;;;2.53;2.33;;;;;;;5.04;81.46;96541.09;4976228;28;20424;-63
2022/05/04 03:31:36;;;;;;;2.88;2.63;;;;;;;5.04;81.81;96543.69;4993767;28;20414;-67
2022/05/04 03:34:02;;;;;;;3.47;2.30;;;;;;;5.06;82.07;96546.25;4993684;28;20022;-67
2022/05/04 03:36:28;;;;;;;8.40;2.40;;;;;;;5.08;81.53;96556.59;4993751;28;20034;-66
2022/05/04 03:38:53;;;;;;;3.85;2.20;;;;;;;5.10;81.46;96549.66;4993628;28;20026;-64
2022/05/04 03:41:19;;;;;;;2.10;1.80;;;;;;;5.11;80.96;96559.13;4993618;28;20077;-65
2022/05/04 03:43:45;;;;;;;2.63;2.42;;;;;;;5.12;80.67;96566.06;4993486;28;20042;-63
2022/05/04 03:46:18;;;;;;;3.50;2.58;;;;;;;5.18;80.81;96561.59;4997707;28;20469;-64
2022/05/04 03:48:45;;;;;;;3.05;2.40;;;;;;;5.25;80.33;96572.75;4997691;28;20026;-62
2022/05/04 03:51:13;;;;;;;6.28;2.30;;;;;;;5.31;80.19;96574.38;4997618;28;20045;-64
2022/05/04 03:53:39;;;;;;;2.85;1.92;;;;;;;5.36;79.86;96574.31;4997582;28;20029;-68
2022/05/04 03:56:05;;;;;;;3.95;2.20;;;;;;;5.38;79.64;96577.72;4997414;28;20027;-66
2022/05/04 03:58:31;;;;;;;2.20;2.00;;;;;;;5.38;79.49;96583.78;4997457;28;20019;-66
2022/05/04 04:00:57;;;;;;;2.75;2.50;;;;;;;5.34;80.08;96586.44;4997388;28;20131;-68
2022/05/04 04:03:22;;;;;;;3.00;2.70;;;;;;;5.41;80.67;96588.91;4997420;28;20026;-64
2022/05/04 04:05:48;;;;;;;2.47;2.10;;;;;;;5.48;80.65;96587.06;4997461;28;20033;-64
2022/05/04 04:08:14;;;;;;;2.40;2.20;;;;;;;5.55;80.54;96583.50;4997183;28;20026;-65
2022/05/04 04:10:39;;;;;;;2.85;2.60;;;;;;;5.65;80.82;96586.78;4997230;28;20026;-67
2022/05/04 04:13:06;;;;;;;3.05;2.30;;;;;;;5.74;80.47;96600.47;4997138;28;20049;-64
2022/05/04 04:15:32;;;;;;;2.40;2.20;;;;;;;5.82;80.26;96596.84;4997319;28;20081;-65
2022/05/04 04:17:58;;;;;;;4.25;1.80;;;;;;;5.91;80.30;96595.00;4997237;28;20037;-68
2022/05/04 04:23:08;;;;;;;2.00;1.80;;;;;;;6.10;79.04;96599.84;4997203;28;20041;-66
2022/05/04 04:25:34;;;;;;;2.13;1.90;;;;;;;6.14;79.36;96593.75;4997040;28;20464;-64
2022/05/04 04:27:59;;;;;;;2.22;2.00;;;;;;;6.26;79.90;96592.63;4996830;28;20508;-64
2022/05/04 04:30:25;;;;;;;3.17;2.80;;;;;;;6.53;80.24;96595.56;4996895;28;20065;-63
2022/05/04 04:32:51;;;;;;;4.68;2.53;;;;;;;6.79;81.03;96601.94;4996867;28;20019;-64
2022/05/04 04:35:16;;;;;;;3.08;2.10;;;;;;;7.00;80.60;96607.53;4996912;28;20382;-67
2022/05/04 04:37:42;;;;;;;4.75;2.60;;;;;;;7.11;80.59;96600.38;4996857;28;20081;-67
2022/05/04 04:40:08;;;;;;;3.47;2.60;;;;;;;7.32;80.43;96603.34;4996828;28;20029;-64
2022/05/04 04:42:33;;;;;;;2.50;2.17;;;;;;;7.49;80.32;96597.72;4996819;28;20080;-64
2022/05/04 04:44:59;;;;;;;2.90;2.60;;;;;;;7.62;80.06;96600.03;4996533;28;20058;-64
2022/05/04 04:47:27;;;;;;;4.80;2.42;;;;;;;7.80;79.84;96604.75;4996478;28;20031;-64
2022/05/04 04:49:59;;;;;;;3.13;2.60;;;;;;;8.05;80.41;96590.22;4996604;28;20037;-65
2022/05/04 04:52:24;;;;;;;2.95;2.60;;;;;;;8.38;80.41;96590.19;4996421;28;20376;-64
2022/05/04 04:54:51;;;;;;;3.50;3.10;;;;;;;8.95;79.02;96589.44;4996546;28;20022;-64
2022/05/04 04:57:16;;;;;;;4.35;2.00;;;;;;;9.41;78.73;96581.06;4995443;28;20026;-63
2022/05/04 04:59:43;;;;;;;2.88;1.85;;;;;;;9.79;77.68;96588.53;4996438;28;20385;-66
2022/05/04 05:02:09;;;;;;;2.47;2.00;;;;;;;10.06;77.33;96584.06;4996496;28;20077;-66
2022/05/04 05:04:35;;;;;;;2.80;1.80;;;;;;;10.63;76.65;96589.97;4996325;28;20562;-63
2022/05/04 05:07:00;;;;;;;2.00;1.80;;;;;;;11.20;73.84;96594.78;4996208;28;20484;-67
2022/05/04 05:09:26;;;;;;;3.95;1.63;;;;;;;11.66;72.81;96585.97;4996236;28;20026;-66
2022/05/04 05:11:52;;;;;;;2.53;1.52;;;;;;;12.04;71.45;96582.63;4996240;28;20026;-64
2022/05/04 05:17:01;;;;;;;3.60;1.50;;;;;;;12.42;69.20;96592.38;4996226;28;20025;-66
2022/05/04 05:19:27;;;;;;;2.97;1.80;;;;;;;12.46;68.30;96589.53;4996131;28;20031;-66
2022/05/04 05:21:52;;;;;;;2.13;1.77;;;;;;;12.48;68.30;96584.22;4996004;28;20102;-63
2022/05/04 05:24:18;;;;;;;4.63;2.00;;;;;;;12.84;68.28;96588.72;4995838;28;20170;-65
2022/05/04 05:26:43;;;;;;;1.58;1.48;;;;;;;13.49;66.09;96594.47;4996109;28;20034;-65
2022/05/04 05:29:09;;;;;;;3.58;1.70;;;;;;;13.81;66.00;96588.56;4995763;28;20116;-65
2022/05/04 05:31:34;;;;;;;4.18;1.90;;;;;;;13.83;64.51;96594.59;4995815;28;20485;-66
2022/05/04 05:34:00;;;;;;;1.88;1.60;;;;;;;13.87;63.65;96590.88;4995838;28;20030;-65
2022/05/04 05:36:26;;;;;;;2.70;1.90;;;;;;;13.79;64.28;96593.91;4995651;28;20033;-64
2022/05/04 05:38:51;;;;;;;4.22;2.28;;;;;;;13.50;65.18;96591.78;4995696;28;20134;-64
2022/05/04 05:41:17;;;;;;;3.20;1.77;;;;;;;13.36;66.09;96592.41;4995658;28;20098;-64
2022/05/04 05:43:43;;;;;;;3.25;2.35;;;;;;;13.24;65.38;96603.50;4995516;28;20093;-66
2022/05/04 05:46:08;;;;;;;2.33;1.70;;;;;;;13.13;65.97;96599.63;4995472;28;20038;-64
2022/05/04 05:48:34;;;;;;;3.35;1.85;;;;;;;12.99;66.08;96594.19;4995340;28;20022;-63
2022/05/04 05:51:04;;;;;;;2.08;1.95;;;;;;;12.91;66.52;96594.53;4995431;28;20030;-67
2022/05/04 05:53:29;;;;;;;3.78;2.30;;;;;;;12.81;66.68;96591.50;4995520;28;20054;-63
2022/05/04 05:55:55;;;;;;;2.10;1.90;;;;;;;12.81;67.46;96591.50;4995445;28;20065;-63
2022/05/04 05:58:20;;;;;;;1.90;1.70;;;;;;;12.79;67.11;96598.56;4995437;28;20045;-67
2022/05/04 06:00:46;;;;;;;2.60;2.10;;;;;;;12.94;66.94;96601.44;4995300;28;20027;-64
2022/05/04 06:03:13;;;;;;;2.40;2.15;;;;;;;13.07;66.64;96604.31;4995314;28;20043;-62
2022/05/04 06:05:39;;;;;;;2.90;1.85;;;;;;;13.15;65.11;96591.66;4995253;28;20111;-65
2022/05/04 06:08:05;;;;;;;3.95;2.20;;;;;;;13.32;64.76;96600.53;4994936;28;20027;-66
2022/05/04 06:10:31;;;;;;;4.80;2.50;;;;;;;13.48;64.00;96590.97;4995011;28;20041;-65
2022/05/04 06:12:56;;;;;;;2.70;2.40;;;;;;;13.62;63.09;96598.22;4995099;28;20031;-64
2022/05/04 06:15:22;;;;;;;3.08;2.05;;;;;;;13.68;63.09;96604.94;4995107;28;20084;-64
2022/05/04 06:17:47;;;;;;;2.15;1.95;;;;;;;13.76;65.63;96599.31;4995010;28;20117;-66
2022/05/04 06:20:13;;;;;;;16.70;2.90;;;;;;;13.82;66.12;96596.34;4995017;28;20472;-64
2022/05/04 06:22:39;;;;;;;1.63;1.52;;;;;;;13.88;66.27;96601.31;4994885;28;20029;-63
2022/05/04 06:25:05;;;;;;;2.45;1.85;;;;;;;13.95;64.34;96601.88;4994842;28;20022;-63
2022/05/04 06:27:32;;;;;;;1.77;1.58;;;;;;;14.13;62.44;96597.44;4994668;28;20018;-63
2022/05/04 06:35:26;;;;;;;3.70;1.75;;;;;;;15.14;60.77;96614.16;4994725;28;20053;-62
2022/05/04 06:37:51;;;;;;;1.60;1.50;;;;;;;15.46;56.46;96622.03;4994560;28;20469;-65
2022/05/04 06:40:17;;;;;;;3.78;1.60;;;;;;;15.87;56.28;96614.47;4994462;28;20094;-64
2022/05/04 06:42:42;;;;;;;1.63;1.48;;;;;;;16.18;54.88;96615.31;4994511;28;20022;-63
2022/05/04 06:45:09;;;;;;;4.85;1.42;;;;;;;16.40;54.67;96617.50;4994370;28;20054;-62
2022/05/04 06:47:35;;;;;;;1.50;1.40;;;;;;;16.41;54.61;96621.00;4994264;28;20022;-62
2022/05/04 06:50:03;;;;;;;1.70;1.60;;;;;;;16.36;53.39;96620.41;4976927;28;20093;-62
2022/05/04 06:52:30;;;;;;;4.22;1.67;;;;;;;16.48;54.25;96621.47;4994241;28;20400;-65
2022/05/04 06:54:56;;;;;;;3.03;1.58;;;;;;;16.73;58.02;96612.88;4994403;28;20022;-63
2022/05/04 06:57:21;;;;;;;2.20;1.20;;;;;;;16.92;55.19;96619.69;4994249;28;20034;-62
2022/05/04 06:59:47;;;;;;;5.07;1.45;;;;;;;16.90;55.44;96616.28;4994214;28;20018;-63
2022/05/04 07:02:13;;;;;;;1.60;1.40;;;;;;;17.11;54.17;96619.41;4994138;28;20080;-63
2022/05/04 07:04:39;;;;;;;3.80;1.50;;;;;;;17.05;54.48;96617.97;4994096;28;20019;-62
2022/05/04 07:07:04;;;;;;;2.17;1.80;;;;;;;17.40;53.31;96627.25;4994009;28;20034;-63
2022/05/04 07:09:30;;;;;;;1.75;1.48;;;;;;;17.68;50.65;96619.31;4994170;28;20030;-65
2022/05/04 07:11:56;;;;;;;1.73;1.58;;;;;;;17.80;50.26;96618.53;4994121;28;20042;-65
2022/05/04 07:14:22;;;;;;;2.85;1.80;;;;;;;17.91;50.57;96612.50;4993911;28;20033;-65
2022/05/04 07:16:48;;;;;;;1.60;1.50;;;;;;;17.90;49.86;96615.25;4993955;28;20109;-63
2022/05/04 07:19:14;;;;;;;3.20;1.60;;;;;;;18.09;48.43;96608.72;4993467;28;20026;-64
2022/05/04 07:21:40;;;;;;;10.70;1.30;;;;;;;18.53;46.88;96609.31;4993897;28;20034;-63
2022/05/04 07:24:06;;;;;;;2.55;1.40;;;;;;;18.78;41.30;96605.78;4993410;28;20432;-62
2022/05/04 07:26:31;;;;;;;2.13;1.60;;;;;;;19.25;46.22;96605.19;4993865;28;20366;-63
2022/05/04 07:28:57;;;;;;;1.83;1.33;;;;;;;19.72;46.16;96604.47;4993801;28;20081;-64
2022/05/04 07:31:23;;;;;;;4.30;1.95;;;;;;;19.95;46.38;96600.09;4993806;28;20050;-63
2022/05/04 07:33:48;;;;;;;2.72;1.58;;;;;;;20.16;45.88;96598.59;4993710;28;20037;-63
2022/05/04 07:36:14;;;;;;;3.78;1.42;;;;;;;20.46;45.28;96597.19;4993636;28;20116;-63
2022/05/04 07:38:40;;;;;;;4.63;1.70;;;;;;;20.63;43.35;96589.72;4993654;28;20106;-64
2022/05/04 07:43:49;;;;;;;2.50;1.60;;;;;;;20.75;43.38;96591.44;4993509;28;20081;-64
2022/05/04 07:46:15;;;;;;;4.72;1.38;;;;;;;20.63;41.79;96590.59;4993592;28;20026;-64
2022/05/04 07:48:40;;;;;;;7.25;1.30;;;;;;;20.47;44.26;96603.38;4993481;28;20049;-64
2022/05/04 07:51:06;;;;;;;1.63;1.23;;;;;;;20.60;43.23;96603.25;4993534;28;20101;-61
2022/05/04 07:53:32;;;;;;;1.30;0.98;;;;;;;20.63;43.04;96600.34;4993511;28;20065;-63
2022/05/04 07:55:57;;;;;;;4.90;1.20;;;;;;;20.69;44.94;96598.09;4993397;28;20109;-63
2022/05/04 07:58:23;;;;;;;1.55;1.30;;;;;;;20.42;41.39;96604.56;4993560;28;20038;-63
2022/05/04 08:06:17;;;;;;;2.53;1.40;;;;;;;19.97;43.05;96601.78;4993570;28;20041;-63
2022/05/04 08:08:42;;;;;;;1.67;1.25;;;;;;;20.11;42.70;96603.41;4993423;28;20027;-63
2022/05/04 08:11:08;;;;;;;3.75;1.40;;;;;;;20.49;44.59;96604.06;4993441;28;20027;-64
2022/05/04 08:13:34;;;;;;;4.47;1.50;;;;;;;20.92;40.89;96602.56;4993420;28;20465;-66
2022/05/04 08:16:00;;;;;;;3.05;1.10;;;;;;;21.17;42.54;96603.25;4993384;28;20030;-64
2022/05/04 08:18:26;;;;;;;4.50;1.52;;;;;;;21.19;41.63;96610.13;4993328;28;20084;-65
2022/05/04 08:20:52;;;;;;;2.63;1.30;;;;;;;21.42;39.14;96603.94;4993341;28;20034;-63
2022/05/04 08:23:18;;;;;;;4.57;1.17;;;;;;;21.30;40.35;96601.31;4993315;28;20104;-63
2022/05/04 08:25:45;;;;;;;1.33;1.02;;;;;;;21.00;42.03;96594.81;4993393;28;20507;-64
2022/05/04 08:28:12;;;;;;;3.38;1.30;;;;;;;21.13;41.01;96584.03;4993160;28;20034;-64
2022/05/04 08:30:41;;;;;;;3.42;1.23;;;;;;;21.19;40.73;96588.88;4977474;28;20026;-64
2022/05/04 08:33:07;;;;;;;2.97;1.50;;;;;;;21.51;39.78;96589.03;4996846;28;20034;-65
2022/05/04 08:35:32;;;;;;;3.28;1.65;;;;;;;21.86;41.34;96581.78;4996874;28;20019;-64
2022/05/04 08:37:59;;;;;;;1.40;1.30;;;;;;;22.09;39.96;96587.84;4996823;28;20018;-62
2022/05/04 08:40:24;;;;;;;2.78;1.23;;;;;;;22.28;35.40;96587.13;4996660;28;20392;-66
2022/05/04 08:42:51;;;;;;;2.65;1.10;;;;;;;21.96;35.81;96583.56;4996658;28;20030;-64
2022/05/04 08:45:17;;;;;;;2.45;1.55;;;;;;;21.40;36.95;96585.44;4996507;28;20050;-65
2022/05/04 08:47:45;;;;;;;3.55;1.55;;;;;;;20.95;38.93;96581.06;4996657;28;20113;-63
2022/05/04 08:50:15;;;;;;;2.85;1.48;;;;;;;20.77;40.89;96586.81;4996653;28;20033;-62
2022/05/04 08:52:51;;;;;;;2.08;1.40;;;;;;;20.56;40.88;96586.72;4979124;28;20418;-64
2022/05/04 08:55:17;;;;;;;1.63;1.33;;;;;;;20.43;38.23;96602.75;4996566;28;20038;-65
2022/05/04 08:57:43;;;;;;;3.50;1.92;;;;;;;20.06;38.31;96601.97;4996499;28;20019;-63
2022/05/04 09:00:10;;;;;;;6.00;1.55;;;;;;;19.79;36.59;96587.13;4996425;28;20049;-62
2022/05/04 09:02:38;;;;;;;4.00;1.50;;;;;;;19.46;37.66;96591.31;4996368;28;20022;-63
2022/05/04 09:05:24;;;;;;;1.58;1.38;;;;;;;19.24;36.50;96597.34;4996225;28;20410;-61
2022/05/04 09:07:51;;;;;;;1.95;1.40;;;;;;;19.07;38.17;96588.78;4996079;28;20030;-62
2022/05/04 09:10:19;;;;;;;6.25;1.98;;;;;;;19.00;41.79;96593.69;4996238;28;20022;-61
2022/05/04 09:12:46;;;;;;;3.38;2.22;;;;;;;19.01;39.09;96591.84;4996225;28;20022;-64
2022/05/04 09:15:18;;;;;;;6.05;1.52;;;;;;;19.01;38.50;96602.47;4996289;28;20027;-62
2022/05/04 09:17:44;;;;;;;2.80;1.48;;;;;;;18.90;38.13;96598.78;4996356;28;20386;-62
2022/05/04 09:22:54;;;;;;;3.28;1.80;;;;;;;18.33;38.96;96600.09;4996420;28;20041;-64
2022/05/04 09:25:20;;;;;;;7.75;2.03;;;;;;;18.17;39.66;96604.66;4995978;28;20109;-63
2022/05/04 09:27:47;;;;;;;5.13;1.80;;;;;;;17.89;41.90;96600.34;4995779;28;20069;-63
2022/05/04 09:30:13;;;;;;;4.65;2.47;;;;;;;17.88;43.59;96603.94;4995927;28;20026;-63
2022/05/04 09:32:42;;;;;;;3.33;1.55;;;;;;;17.86;40.93;96605.81;4995793;28;20358;-61
2022/05/04 09:35:15;;;;;;;3.05;2.00;;;;;;;17.93;41.23;96607.97;4995794;28;20098;-61
2022/05/04 09:45:55;;;;;;;3.95;1.23;;;;;;;17.93;40.37;96602.69;4995912;28;20503;-61
2022/05/04 09:48:32;;;;;;;1.80;1.30;;;;;;;17.96;38.88;96596.31;4995470;28;20057;-64
2022/05/04 09:51:05;;;;;;;1.98;1.70;;;;;;;17.64;44.65;96597.50;4995427;28;20373;-64
2022/05/04 09:53:32;;;;;;;3.75;1.63;;;;;;;17.65;45.37;96596.59;4995547;28;20161;-63
2022/05/04 09:55:58;;;;;;;3.80;1.70;;;;;;;17.41;45.09;96599.03;4995522;28;20026;-64
2022/05/04 09:58:29;;;;;;;3.15;1.90;;;;;;;17.16;46.43;96604.09;4995286;28;20026;-62
2022/05/04 10:00:59;;;;;;;3.55;1.88;;;;;;;16.90;47.23;96598.66;4995346;28;20031;-65
2022/05/04 10:03:25;;;;;;;3.33;2.20;;;;;;;16.80;47.18;96590.44;4995206;28;20035;-62
2022/05/04 10:05:53;;;;;;;2.40;1.95;;;;;;;16.77;46.64;96593.25;4995232;28;20037;-63
2022/05/04 10:08:19;;;;;;;3.63;2.05;;;;;;;16.79;45.79;96583.47;4995020;28;20128;-63
2022/05/04 10:10:47;;;;;;;3.28;1.85;;;;;;;17.05;49.00;96585.41;4995161;28;20031;-63
2022/05/04 10:13:16;;;;;;;3.13;2.10;;;;;;;17.25;45.49;96588.59;4995080;28;20014;-63
2022/05/04 10:15:43;;;;;;;2.70;2.00;;;;;;;17.21;45.11;96587.06;4995010;28;20464;-64
2022/05/04 10:18:24;;;;;;;2.65;1.77;;;;;;;17.27;45.98;96584.91;4994963;28;20018;-63
2022/05/04 10:20:54;;;;;;;4.63;2.20;;;;;;;17.61;47.46;96579.19;4995057;28;20532;-62
2022/05/04 10:23:27;;;;;;;2.63;1.90;;;;;;;17.90;44.66;96583.50;4994950;28;20499;-62
2022/05/04 10:25:57;;;;;;;1.92;1.70;;;;;;;17.77;42.30;96578.19;4995006;28;20392;-63
2022/05/04 10:28:23;;;;;;;2.53;2.00;;;;;;;17.61;44.15;96584.47;4994769;28;20040;-64
2022/05/04 10:30:59;;;;;;;2.42;1.80;;;;;;;17.68;43.99;96572.56;4994674;28;20026;-64
2022/05/04 10:33:32;;;;;;;5.10;1.90;;;;;;;17.79;45.91;96581.59;4994797;28;20027;-65
2022/05/04 10:36:14;;;;;;;6.53;2.17;;;;;;;17.85;45.16;96569.75;4994617;28;20093;-64
2022/05/04 10:38:43;;;;;;;3.65;1.75;;;;;;;17.88;43.85;96580.94;4994614;28;20038;-65
2022/05/04 10:41:10;;;;;;;4.85;2.17;;;;;;;18.01;41.92;96570.41;4994503;28;20075;-63
2022/05/04 10:43:40;;;;;;;2.92;2.05;;;;;;;18.26;42.63;96567.91;4994287;28;20405;-65
2022/05/04 10:46:16;;;;;;;4.53;2.20;;;;;;;18.34;43.67;96565.59;4994446;28;20030;-63
2022/05/04 10:48:44;;;;;;;7.15;1.90;;;;;;;18.53;40.69;96562.50;4994321;28;20045;-65
2022/05/04 10:51:21;;;;;;;3.47;2.17;;;;;;;18.33;39.51;96558.56;4994303;28;20023;-64
2022/05/04 10:53:53;;;;;;;2.00;1.80;;;;;;;18.44;44.60;96549.88;4993696;28;20026;-65
2022/05/04 10:56:24;;;;;;;6.78;2.25;;;;;;;18.76;42.18;96556.53;4994322;28;20080;-64
2022/05/04 10:58:49;;;;;;;3.47;2.45;;;;;;;18.92;42.17;96559.78;4994286;28;20388;-63
2022/05/04 11:01:17;;;;;;;4.97;1.90;;;;;;;19.14;39.82;96560.06;4994216;28;20033;-63
2022/05/04 11:04:07;;;;;;;6.25;1.98;;;;;;;19.17;39.82;96557.16;4994173;28;20358;-65
2022/05/04 11:06:49;;;;;;;5.53;1.83;;;;;;;19.28;39.96;96559.03;4994214;28;20041;-65
2022/05/04 11:09:17;;;;;;;3.95;1.67;;;;;;;19.51;40.96;96562.63;4993996;28;20030;-64
2022/05/04 11:11:51;;;;;;;7.65;1.75;;;;;;;19.49;44.68;96556.63;4994034;28;20033;-64
2022/05/04 11:14:22;;;;;;;3.45;2.00;;;;;;;19.32;42.64;96561.34;4993971;28;20026;-64
2022/05/04 11:16:53;;;;;;;5.65;2.25;;;;;;;19.02;41.60;96551.16;4993995;28;20031;-65
2022/05/04 11:19:22;;;;;;;3.92;2.28;;;;;;;18.81;43.08;96552.59;4993882;28;20033;-66
2022/05/04 11:21:48;;;;;;;4.68;2.60;;;;;;;18.68;43.49;96555.28;4993924;28;20098;-62
2022/05/04 11:24:15;;;;;;;4.22;1.85;;;;;;;18.51;45.22;96551.16;4993876;28;20118;-64
2022/05/04 11:26:46;;;;;;;2.22;1.92;;;;;;;18.31;45.74;96563.16;4993889;28;20025;-63
2022/05/04 11:29:17;;;;;;;3.67;2.30;;;;;;;18.27;46.85;96566.97;4993714;28;20120;-64
2022/05/04 11:31:56;;;;;;;2.00;1.67;;;;;;;18.25;44.62;96569.72;4993813;28;20483;-66
2022/05/04 11:34:24;;;;;;;4.07;1.98;;;;;;;18.42;45.51;96565.88;4993718;28;20381;-62
2022/05/04 11:36:52;;;;;;;3.10;2.45;;;;;;;18.75;46.10;96558.31;4993712;28;20022;-63
2022/05/04 11:39:23;;;;;;;1.73;1.63;;;;;;;18.99;42.24;96559.34;4993741;28;20033;-64
2022/05/04 11:41:51;;;;;;;2.88;1.90;;;;;;;18.84;42.58;96562.09;4993630;28;20061;-62
2022/05/04 11:44:21;;;;;;;4.93;2.35;;;;;;;18.58;42.97;96543.63;4993434;28;20047;-63
2022/05/04 11:46:47;;;;;;;3.63;2.07;;;;;;;18.28;45.59;96550.13;4993929;28;20037;-65
2022/05/04 11:49:14;;;;;;;2.30;1.88;;;;;;;18.24;45.97;96549.47;4993822;28;20650;-64
2022/05/04 11:51:40;;;;;;;2.40;2.05;;;;;;;18.24;45.74;96548.66;4993564;28;20039;-65
2022/05/04 11:54:07;;;;;;;5.78;2.05;;;;;;;18.05;44.32;96541.91;4993607;28;20034;-63
2022/05/04 11:56:34;;;;;;;5.35;2.50;;;;;;;17.75;45.00;96545.69;4993572;28;20018;-64
2022/05/04 11:59:01;;;;;;;2.38;1.98;;;;;;;17.78;44.14;96542.84;4993560;28;20015;-64
2022/05/04 12:01:26;;;;;;;3.78;2.05;;;;;;;17.96;45.14;96539.91;4993509;28;20030;-65
2022/05/04 12:03:52;;;;;;;4.88;2.42;;;;;;;17.97;44.86;96525.72;4993381;28;20073;-65
2022/05/04 12:06:21;;;;;;;6.85;2.28;;;;;;;18.33;46.33;96526.81;4995848;28;20389;-62
2022/05/04 12:08:47;;;;;;;2.45;2.25;;;;;;;18.69;47.45;96524.31;4997321;28;20066;-64
2022/05/04 12:11:16;;;;;;;2.53;2.03;;;;;;;18.97;45.96;96529.44;4997469;28;20029;-62
2022/05/04 12:13:43;;;;;;;6.90;2.35;;;;;;;19.11;46.42;96521.34;4997371;28;20030;-62